Time;durP1;ratioP1;P1;durP2;ratioP2;P2;SDS_P1;SDS_P2;PMS_P1;PMS_P2;Temp;Humidity;BMP_temperature;BMP_pressure;BME280_temperature;BME280_humidity;BME280_pressure;Samples;Min_cycle;Max_cycle;Signal;HPM_P1;HPM_P2
2023/09/08 00:00:04;;;;;;;3.67;1.80;;;;;;;20.91;58.76;99640.84;336745;28;18265;-69
2023/09/08 00:00:16;;;;;;;3.55;1.80;;;;;;;20.88;58.74;99636.59;339558;28;11694;-69
2023/09/08 00:00:28;;;;;;;2.80;1.70;;;;;;;20.89;58.87;99632.19;337685;28;18135;-69
2023/09/08 00:00:40;;;;;;;3.10;1.70;;;;;;;20.87;58.65;99634.13;340822;28;5496;-68
2023/09/08 00:00:53;;;;;;;3.00;1.63;;;;;;;20.85;58.68;99636.03;333434;28;5223;-68
2023/09/08 00:01:05;;;;;;;2.53;1.70;;;;;;;20.85;58.87;99630.75;340013;28;4630;-68
2023/09/08 00:01:19;;;;;;;1.90;1.55;;;;;;;20.85;58.75;99636.84;340506;28;4613;-67
2023/09/08 00:01:31;;;;;;;1.63;1.35;;;;;;;20.87;58.95;99639.41;337745;28;18542;-68
2023/09/08 00:01:43;;;;;;;1.97;1.40;;;;;;;20.88;58.49;99636.59;337868;28;17963;-69
2023/09/08 00:01:55;;;;;;;2.45;1.55;;;;;;;20.89;58.66;99637.47;340323;28;5285;-68
2023/09/08 00:02:08;;;;;;;2.45;1.60;;;;;;;20.90;58.81;99636.50;340485;28;4808;-69
2023/09/08 00:02:20;;;;;;;2.38;1.50;;;;;;;20.88;58.73;99635.78;337684;28;18071;-70
2023/09/08 00:02:32;;;;;;;1.98;1.30;;;;;;;20.87;58.78;99634.94;336020;28;4636;-67
2023/09/08 00:02:44;;;;;;;2.75;1.42;;;;;;;20.87;58.56;99634.94;337525;28;18077;-68
2023/09/08 00:02:56;;;;;;;4.30;1.70;;;;;;;20.85;58.68;99636.84;340422;28;4619;-68
2023/09/08 00:03:08;;;;;;;4.32;1.80;;;;;;;20.86;59.08;99635.06;340039;28;8707;-69
2023/09/08 00:03:21;;;;;;;2.22;1.73;;;;;;;20.88;58.56;99636.59;337453;28;18531;-69
2023/09/08 00:03:33;;;;;;;2.08;1.70;;;;;;;20.88;58.56;99636.59;337826;28;11648;-69
2023/09/08 00:03:45;;;;;;;1.80;1.48;;;;;;;20.84;58.38;99639.59;335178;28;5852;-68
2023/09/08 00:03:57;;;;;;;2.13;1.65;;;;;;;20.84;58.72;99634.31;339974;28;5081;-69
2023/09/08 00:04:11;;;;;;;2.72;1.83;;;;;;;20.84;58.66;99632.53;335477;28;18178;-69
2023/09/08 00:04:23;;;;;;;3.50;1.98;;;;;;;20.82;58.67;99637.06;339809;28;4546;-69
2023/09/08 00:04:35;;;;;;;3.00;1.75;;;;;;;20.81;59.14;99637.22;337830;28;18885;-69
2023/09/08 00:04:48;;;;;;;2.55;1.60;;;;;;;20.75;59.10;99628.78;337512;28;4647;-69
2023/09/08 00:05:00;;;;;;;2.63;1.63;;;;;;;20.73;59.03;99632.50;339745;28;5241;-69
2023/09/08 00:05:13;;;;;;;2.42;1.50;;;;;;;20.73;59.20;99633.34;339912;28;4741;-68
2023/09/08 00:05:24;;;;;;;2.60;1.63;;;;;;;20.73;59.36;99628.06;332708;28;12448;-69
2023/09/08 00:05:36;;;;;;;2.53;1.63;;;;;;;20.74;59.21;99634.19;339858;28;5389;-68
2023/09/08 00:05:49;;;;;;;2.47;1.70;;;;;;;20.71;58.98;99629.97;330837;28;4702;-68
2023/09/08 00:06:00;;;;;;;1.92;1.50;;;;;;;20.73;59.12;99633.34;334917;28;18222;-68
2023/09/08 00:06:12;;;;;;;1.70;1.40;;;;;;;20.73;59.34;99628.06;337558;28;5998;-67
2023/09/08 00:06:24;;;;;;;2.00;1.50;;;;;;;20.73;59.31;99630.69;334945;28;12652;-68
2023/09/08 00:06:36;;;;;;;2.10;1.50;;;;;;;20.73;59.19;99625.41;337472;28;5478;-68
2023/09/08 00:06:48;;;;;;;1.67;1.38;;;;;;;20.73;59.07;99628.06;332633;28;4692;-68
2023/09/08 00:07:00;;;;;;;2.10;1.48;;;;;;;20.73;59.22;99627.22;334824;28;4975;-69
2023/09/08 00:07:13;;;;;;;2.33;1.60;;;;;;;20.73;59.27;99628.06;337328;28;5462;-68
2023/09/08 00:07:25;;;;;;;2.05;1.50;;;;;;;20.73;59.01;99628.06;334960;28;12301;-69
2023/09/08 00:07:37;;;;;;;1.75;1.30;;;;;;;20.70;59.08;99627.44;337762;28;4500;-67
2023/09/08 00:07:50;;;;;;;2.88;1.40;;;;;;;20.71;59.24;99624.69;335574;28;18073;-68
2023/09/08 00:08:02;;;;;;;3.55;1.60;;;;;;;20.71;59.23;99629.97;339690;28;6168;-68
2023/09/08 00:08:15;;;;;;;4.22;1.80;;;;;;;20.71;59.12;99619.41;339989;28;4692;-68
2023/09/08 00:08:28;;;;;;;3.30;1.73;;;;;;;20.73;58.91;99630.69;337756;28;16478;-69
2023/09/08 00:08:43;;;;;;;2.65;1.60;;;;;;;20.75;59.19;99626.13;333008;28;17947;-69
2023/09/08 00:08:54;;;;;;;2.30;1.42;;;;;;;20.72;59.07;99631.63;340497;28;4468;-68
2023/09/08 00:09:07;;;;;;;2.63;1.48;;;;;;;20.67;59.10;99628.53;337465;28;18580;-68
2023/09/08 00:09:19;;;;;;;2.60;1.60;;;;;;;20.67;59.13;99623.25;340107;28;7135;-68
2023/09/08 00:09:31;;;;;;;6.82;1.67;;;;;;;20.65;59.23;99630.44;337373;28;19327;-69
2023/09/08 00:09:46;;;;;;;6.88;1.83;;;;;;;20.64;59.12;99628.72;337740;28;17409;-68
2023/09/08 00:09:58;;;;;;;2.40;1.80;;;;;;;20.63;59.39;99626.22;340146;28;4579;-67
2023/09/08 00:10:11;;;;;;;2.10;1.60;;;;;;;20.65;59.50;99630.44;337856;28;4552;-68
2023/09/08 00:10:24;;;;;;;2.03;1.48;;;;;;;20.65;59.15;99633.06;340243;28;4654;-67
2023/09/08 00:10:35;;;;;;;2.10;1.50;;;;;;;20.67;59.03;99627.69;337577;28;12748;-69
2023/09/08 00:10:47;;;;;;;2.40;1.55;;;;;;;20.67;59.17;99627.69;340087;28;4556;-68
2023/09/08 00:11:00;;;;;;;2.40;1.60;;;;;;;20.63;59.15;99627.06;338731;28;5429;-69
2023/09/08 00:11:11;;;;;;;2.40;1.60;;;;;;;20.63;59.26;99632.34;338008;28;11858;-69
2023/09/08 00:11:23;;;;;;;2.10;1.58;;;;;;;20.63;59.09;99627.06;337539;28;18186;-68
2023/09/08 00:11:35;;;;;;;2.00;1.60;;;;;;;20.65;59.08;99629.59;338802;28;4599;-68
2023/09/08 00:11:48;;;;;;;2.25;1.80;;;;;;;20.62;59.41;99628.00;336162;28;19121;-68
2023/09/08 00:12:00;;;;;;;2.28;1.77;;;;;;;20.57;59.36;99635.41;340033;28;4496;-68
2023/09/08 00:12:12;;;;;;;2.03;1.67;;;;;;;20.57;59.44;99631.94;337488;28;17525;-69
2023/09/08 00:12:24;;;;;;;1.83;1.55;;;;;;;20.58;59.28;99630.97;339960;28;4540;-69
2023/09/08 00:12:36;;;;;;;2.33;1.63;;;;;;;20.54;59.62;99627.72;340432;28;5522;-69
2023/09/08 00:12:48;;;;;;;2.97;1.80;;;;;;;20.56;59.57;99625.78;332736;28;18272;-69
2023/09/08 00:13:00;;;;;;;3.22;1.88;;;;;;;20.55;59.79;99632.06;340175;28;5518;-68
2023/09/08 00:13:12;;;;;;;3.17;1.85;;;;;;;20.55;59.76;99624.13;336468;28;6205;-69
2023/09/08 00:13:24;;;;;;;2.72;1.73;;;;;;;20.55;59.74;99629.41;338297;28;17615;-69
2023/09/08 00:13:37;;;;;;;2.47;1.65;;;;;;;20.53;59.56;99626.88;340384;28;4657;-69
2023/09/08 00:13:50;;;;;;;2.15;1.50;;;;;;;20.52;59.76;99627.84;337586;28;18293;-69
2023/09/08 00:14:03;;;;;;;1.98;1.48;;;;;;;20.52;59.56;99625.22;339960;28;4557;-69
2023/09/08 00:14:17;;;;;;;2.42;1.58;;;;;;;20.53;59.58;99623.41;337522;28;17764;-69
2023/09/08 00:14:29;;;;;;;3.13;1.67;;;;;;;20.54;59.76;99622.44;337480;28;18492;-69
2023/09/08 00:14:42;;;;;;;2.97;1.70;;;;;;;20.56;59.34;99620.50;340019;28;4623;-69
2023/09/08 00:14:54;;;;;;;2.00;1.60;;;;;;;20.54;59.86;99628.56;337308;28;12021;-69
2023/09/08 00:15:07;;;;;;;2.15;1.60;;;;;;;20.54;59.84;99625.06;338906;28;4985;-69
2023/09/08 00:15:19;;;;;;;3.05;1.63;;;;;;;20.53;59.80;99626.88;337360;28;5216;-69
2023/09/08 00:15:33;;;;;;;2.92;1.65;;;;;;;20.54;59.75;99628.56;340017;28;4662;-69
2023/09/08 00:15:46;;;;;;;2.13;1.63;;;;;;;20.54;59.76;99623.28;337273;28;17964;-69
2023/09/08 00:15:58;;;;;;;2.58;1.58;;;;;;;20.51;59.93;99622.66;339838;28;4577;-69
2023/09/08 00:16:10;;;;;;;3.08;1.63;;;;;;;20.53;59.78;99626.03;335503;28;18307;-69
2023/09/08 00:16:22;;;;;;;3.40;1.60;;;;;;;20.53;59.72;99629.50;340102;28;4545;-69
2023/09/08 00:16:34;;;;;;;2.67;1.60;;;;;;;20.54;59.76;99622.44;337423;28;17989;-69
2023/09/08 00:16:47;;;;;;;2.55;1.60;;;;;;;20.53;59.80;99631.31;340051;28;4611;-69
2023/09/08 00:16:59;;;;;;;2.75;1.85;;;;;;;20.55;59.82;99629.41;337011;28;12256;-70
2023/09/08 00:17:11;;;;;;;3.67;1.88;;;;;;;20.58;59.74;99634.44;339918;28;4627;-69
2023/09/08 00:17:23;;;;;;;3.28;1.60;;;;;;;20.58;59.67;99628.31;334899;28;5260;-70
2023/09/08 00:17:36;;;;;;;2.70;1.50;;;;;;;20.58;59.94;99629.16;337263;28;17768;-70
2023/09/08 00:17:48;;;;;;;2.58;1.48;;;;;;;20.54;59.66;99625.94;340014;28;5188;-69
2023/09/08 00:18:01;;;;;;;2.53;1.55;;;;;;;20.54;59.77;99628.56;336934;28;18335;-70
2023/09/08 00:18:13;;;;;;;2.67;1.88;;;;;;;20.55;59.85;99632.06;340001;28;5003;-69
2023/09/08 00:18:25;;;;;;;2.65;1.80;;;;;;;20.55;59.89;99632.06;337385;28;16335;-70
2023/09/08 00:18:37;;;;;;;2.42;1.58;;;;;;;20.55;59.88;99630.25;340170;28;5364;-70
2023/09/08 00:18:49;;;;;;;2.38;1.48;;;;;;;20.57;59.66;99631.94;335412;28;4696;-69
2023/09/08 00:19:01;;;;;;;1.88;1.40;;;;;;;20.56;60.02;99625.78;337170;28;18012;-69
2023/09/08 00:19:14;;;;;;;2.25;1.60;;;;;;;20.59;59.72;99622.97;338998;28;4639;-69
2023/09/08 00:19:28;;;;;;;2.80;1.77;;;;;;;20.61;59.41;99633.44;339417;28;18071;-69
2023/09/08 00:19:41;;;;;;;2.70;1.80;;;;;;;20.61;59.70;99622.88;337774;28;17225;-69
2023/09/08 00:19:53;;;;;;;1.92;1.40;;;;;;;20.61;59.64;99631.63;339385;28;5025;-69
2023/09/08 00:20:09;;;;;;;2.10;1.70;;;;;;;20.61;59.68;99628.97;339002;28;17923;-69
2023/09/08 00:20:21;;;;;;;2.63;1.85;;;;;;;20.62;59.62;99635.09;331344;28;17841;-69
2023/09/08 00:20:34;;;;;;;3.78;1.67;;;;;;;20.63;59.60;99629.72;339292;28;5359;-69
2023/09/08 00:20:46;;;;;;;3.80;1.73;;;;;;;20.60;59.53;99629.91;336482;28;17912;-69
2023/09/08 00:20:58;;;;;;;3.72;1.58;;;;;;;20.56;59.90;99633.72;340057;28;4619;-69
2023/09/08 00:21:10;;;;;;;2.55;1.48;;;;;;;20.53;60.03;99628.69;337481;28;12023;-69
2023/09/08 00:21:22;;;;;;;2.75;1.60;;;;;;;20.54;60.26;99633.00;340067;28;5284;-69
2023/09/08 00:21:34;;;;;;;2.78;1.70;;;;;;;20.53;59.71;99631.31;340191;28;4651;-69
2023/09/08 00:21:46;;;;;;;2.55;1.63;;;;;;;20.54;59.91;99628.56;337765;28;17334;-69
2023/09/08 00:21:59;;;;;;;2.50;1.85;;;;;;;20.50;59.94;99628.91;338903;28;4751;-68
2023/09/08 00:22:11;;;;;;;2.20;1.83;;;;;;;20.52;59.94;99630.50;336060;28;13087;-68
2023/09/08 00:22:23;;;;;;;2.25;1.90;;;;;;;20.50;60.04;99628.91;339469;28;5438;-68
2023/09/08 00:22:37;;;;;;;2.00;1.77;;;;;;;20.48;60.31;99628.16;336375;28;4714;-68
2023/09/08 00:22:49;;;;;;;1.67;1.50;;;;;;;20.45;60.10;99629.25;339114;28;4695;-68
2023/09/08 00:23:01;;;;;;;1.95;1.50;;;;;;;20.46;60.18;99630.91;336592;28;19174;-68
2023/09/08 00:23:13;;;;;;;2.13;1.60;;;;;;;20.44;60.65;99629.34;338677;28;5049;-68
2023/09/08 00:23:28;;;;;;;2.63;1.80;;;;;;;20.45;60.53;99623.97;339254;28;4788;-69
2023/09/08 00:23:40;;;;;;;3.47;1.77;;;;;;;20.44;60.30;99626.72;336318;28;19004;-69
2023/09/08 00:23:53;;;;;;;3.57;1.73;;;;;;;20.45;60.46;99623.13;337013;28;18133;-70
2023/09/08 00:24:05;;;;;;;2.70;1.90;;;;;;;20.46;60.39;99624.78;340393;28;4624;-70
2023/09/08 00:24:18;;;;;;;2.70;1.80;;;;;;;20.46;60.12;99625.63;337858;28;18173;-69
2023/09/08 00:24:30;;;;;;;2.20;1.48;;;;;;;20.47;60.05;99631.78;340010;28;5588;-68
2023/09/08 00:24:42;;;;;;;2.40;1.53;;;;;;;20.44;60.31;99627.53;337882;28;5560;-69
2023/09/08 00:24:55;;;;;;;3.22;1.77;;;;;;;20.42;60.35;99625.97;340864;28;4628;-69
2023/09/08 00:25:07;;;;;;;3.55;2.00;;;;;;;20.41;60.69;99621.69;336686;28;12588;-69
2023/09/08 00:25:21;;;;;;;3.03;1.70;;;;;;;20.39;60.68;99624.41;339529;28;12030;-69
2023/09/08 00:25:34;;;;;;;2.33;1.50;;;;;;;20.39;60.64;99626.22;337634;28;17239;-68
2023/09/08 00:25:46;;;;;;;2.33;1.60;;;;;;;20.37;60.86;99622.84;339862;28;4480;-67
2023/09/08 00:25:58;;;;;;;2.28;1.55;;;;;;;20.38;60.62;99632.44;332165;28;18091;-69
2023/09/08 00:26:10;;;;;;;2.83;1.60;;;;;;;20.35;60.78;99622.97;335919;28;4507;-69
2023/09/08 00:26:22;;;;;;;2.90;1.65;;;;;;;20.31;60.85;99622.34;337432;28;12009;-69
2023/09/08 00:26:34;;;;;;;2.38;1.63;;;;;;;20.27;60.97;99626.16;331431;28;4530;-68
2023/09/08 00:26:46;;;;;;;2.72;1.95;;;;;;;20.28;60.88;99627.88;341504;28;5225;-68
2023/09/08 00:26:58;;;;;;;2.72;1.98;;;;;;;20.30;60.77;99625.09;338117;28;17900;-68
2023/09/08 00:27:12;;;;;;;2.00;1.63;;;;;;;20.30;60.76;99618.03;341378;28;5305;-69
2023/09/08 00:27:24;;;;;;;2.03;1.70;;;;;;;20.30;60.66;99625.94;338437;28;18743;-69
2023/09/08 00:27:36;;;;;;;2.08;1.70;;;;;;;20.28;60.82;99621.72;340977;28;4503;-69
2023/09/08 00:27:48;;;;;;;2.25;1.65;;;;;;;20.29;60.80;99629.53;338824;28;11332;-69
2023/09/08 00:28:00;;;;;;;3.00;1.67;;;;;;;20.27;61.02;99630.59;341044;28;4627;-69
2023/09/08 00:28:12;;;;;;;2.72;1.52;;;;;;;20.27;61.01;99631.44;340903;28;5506;-69
2023/09/08 00:28:24;;;;;;;2.72;1.83;;;;;;;20.27;60.86;99615.59;337257;28;18224;-69
2023/09/08 00:28:36;;;;;;;3.05;2.05;;;;;;;20.27;61.00;99626.16;339826;28;5538;-69
2023/09/08 00:28:48;;;;;;;3.55;2.13;;;;;;;20.25;60.65;99628.06;339631;28;12535;-69
2023/09/08 00:29:00;;;;;;;3.67;1.85;;;;;;;20.25;60.75;99628.06;335979;28;17285;-69
2023/09/08 00:29:12;;;;;;;3.80;1.77;;;;;;;20.20;60.91;99629.34;333763;28;4575;-69
2023/09/08 00:29:24;;;;;;;3.40;1.90;;;;;;;20.11;61.24;99631.72;335797;28;16448;-69
2023/09/08 00:29:36;;;;;;;2.53;1.83;;;;;;;20.05;61.37;99621.59;338501;28;4804;-69
2023/09/08 00:29:48;;;;;;;2.45;1.85;;;;;;;20.02;61.53;99627.13;338518;28;5378;-69
2023/09/08 00:30:01;;;;;;;2.13;1.67;;;;;;;20.06;61.29;99631.22;336951;28;17702;-69
2023/09/08 00:30:14;;;;;;;2.72;1.63;;;;;;;20.07;61.45;99624.97;337196;28;12108;-69
2023/09/08 00:30:26;;;;;;;3.00;1.65;;;;;;;20.04;61.71;99629.63;335739;28;4495;-69
2023/09/08 00:30:38;;;;;;;3.78;1.75;;;;;;;19.96;61.82;99632.84;338860;28;4661;-68
2023/09/08 00:30:50;;;;;;;3.70;1.85;;;;;;;19.93;61.83;99633.88;338449;28;17475;-69
2023/09/08 00:31:02;;;;;;;2.97;2.03;;;;;;;19.88;62.35;99630.75;340075;28;5126;-69
2023/09/08 00:31:14;;;;;;;2.60;1.77;;;;;;;19.86;62.39;99632.66;337807;28;4675;-69
2023/09/08 00:31:26;;;;;;;2.17;1.60;;;;;;;19.87;62.22;99631.69;340129;28;4532;-69
2023/09/08 00:31:38;;;;;;;1.92;1.42;;;;;;;19.89;62.31;99634.22;338934;28;4656;-69
2023/09/08 00:31:50;;;;;;;1.90;1.40;;;;;;;19.84;62.12;99629.28;338765;28;18297;-70
2023/09/08 00:32:02;;;;;;;2.00;1.42;;;;;;;19.86;62.17;99635.28;334672;28;4512;-69
2023/09/08 00:32:15;;;;;;;2.30;1.60;;;;;;;19.89;62.04;99632.41;337547;28;12015;-69
2023/09/08 00:32:27;;;;;;;2.22;1.60;;;;;;;19.90;61.98;99634.13;339835;28;5016;-69
2023/09/08 00:32:39;;;;;;;2.17;1.60;;;;;;;19.91;61.97;99635.78;337524;28;12157;-69
2023/09/08 00:32:52;;;;;;;2.15;1.60;;;;;;;19.90;61.94;99634.13;340142;28;5454;-69
2023/09/08 00:33:07;;;;;;;2.00;1.67;;;;;;;19.92;61.82;99632.22;340203;28;4647;-70
2023/09/08 00:33:19;;;;;;;2.33;1.60;;;;;;;19.94;61.60;99640.84;339729;28;17575;-69
2023/09/08 00:33:31;;;;;;;2.40;1.60;;;;;;;19.95;61.92;99631.97;337224;28;18818;-69
2023/09/08 00:33:44;;;;;;;1.77;1.50;;;;;;;19.99;61.75;99634.41;339831;28;4843;-69
2023/09/08 00:33:56;;;;;;;1.80;1.50;;;;;;;19.98;61.91;99640.63;337581;28;17986;-68
2023/09/08 00:34:08;;;;;;;1.75;1.35;;;;;;;19.97;62.13;99638.94;339928;28;5130;-68
2023/09/08 00:34:20;;;;;;;2.28;1.60;;;;;;;19.99;61.95;99631.78;337325;28;18092;-69
2023/09/08 00:34:32;;;;;;;2.22;1.70;;;;;;;20.00;62.03;99623.75;340659;28;5332;-68
2023/09/08 00:34:44;;;;;;;2.58;1.65;;;;;;;20.01;61.86;99627.22;340575;28;5331;-69
2023/09/08 00:34:56;;;;;;;2.78;1.77;;;;;;;19.98;62.02;99635.34;333470;28;5324;-68
2023/09/08 00:35:11;;;;;;;4.75;2.20;;;;;;;19.95;61.98;99631.13;339624;28;17339;-69
2023/09/08 00:35:23;;;;;;;4.30;2.07;;;;;;;19.97;61.80;99633.69;337989;28;17721;-68
2023/09/08 00:35:35;;;;;;;2.00;1.60;;;;;;;20.00;61.79;99633.44;338521;28;4593;-68
2023/09/08 00:35:51;;;;;;;2.55;1.63;;;;;;;20.00;61.94;99638.72;339059;28;17767;-68
2023/09/08 00:36:03;;;;;;;2.70;1.52;;;;;;;20.01;61.81;99632.50;337137;28;18239;-68
2023/09/08 00:36:15;;;;;;;2.88;1.67;;;;;;;19.99;61.77;99631.78;340308;28;4505;-68
2023/09/08 00:36:27;;;;;;;2.90;1.75;;;;;;;19.89;62.09;99632.41;337880;28;5675;-70
2023/09/08 00:36:39;;;;;;;3.20;1.98;;;;;;;19.84;62.32;99625.78;340359;28;4492;-70
2023/09/08 00:36:51;;;;;;;3.22;2.03;;;;;;;19.79;62.59;99635.84;337733;28;5175;-70
2023/09/08 00:37:07;;;;;;;2.45;1.90;;;;;;;19.79;62.45;99636.66;340311;28;5189;-69
2023/09/08 00:37:19;;;;;;;2.40;1.80;;;;;;;19.79;62.60;99636.66;337706;28;18181;-69
2023/09/08 00:37:31;;;;;;;2.20;1.60;;;;;;;19.80;62.23;99635.72;337423;28;18176;-69
2023/09/08 00:37:43;;;;;;;2.20;1.52;;;;;;;19.80;62.44;99637.50;340328;28;5324;-69
2023/09/08 00:37:55;;;;;;;2.13;1.42;;;;;;;19.81;62.32;99628.66;335624;28;4518;-69
2023/09/08 00:38:07;;;;;;;2.33;1.40;;;;;;;19.83;61.97;99638.13;337167;28;19246;-69
2023/09/08 00:38:19;;;;;;;2.42;1.45;;;;;;;19.81;62.02;99626.84;340185;28;4602;-68
2023/09/08 00:38:31;;;;;;;2.95;1.52;;;;;;;19.75;61.97;99641.31;338746;28;5522;-68
2023/09/08 00:38:44;;;;;;;2.60;1.65;;;;;;;19.73;62.13;99634.47;338216;28;18245;-68
2023/09/08 00:38:56;;;;;;;2.20;1.63;;;;;;;19.73;62.09;99640.56;339976;28;4690;-68
2023/09/08 00:39:08;;;;;;;2.58;1.75;;;;;;;19.70;62.04;99637.31;337731;28;18208;-69
2023/09/08 00:39:20;;;;;;;3.13;1.93;;;;;;;19.66;62.22;99643.72;339756;28;5163;-67
2023/09/08 00:39:34;;;;;;;2.95;1.98;;;;;;;19.66;62.29;99644.59;337396;28;18035;-69
2023/09/08 00:39:46;;;;;;;2.13;1.60;;;;;;;19.64;62.59;99640.34;340078;28;5217;-69
2023/09/08 00:39:58;;;;;;;1.98;1.70;;;;;;;19.59;62.52;99639.84;337539;28;18107;-69
2023/09/08 00:40:10;;;;;;;1.92;1.67;;;;;;;19.47;62.99;99642.38;340250;28;5795;-69
2023/09/08 00:40:23;;;;;;;1.75;1.48;;;;;;;19.42;63.19;99639.22;337699;28;17833;-69
2023/09/08 00:40:35;;;;;;;3.33;1.67;;;;;;;19.33;64.17;99640.69;340615;28;5275;-69
2023/09/08 00:40:47;;;;;;;4.03;2.05;;;;;;;19.24;64.96;99651.06;339742;28;5338;-68
2023/09/08 00:41:00;;;;;;;3.92;2.03;;;;;;;19.25;64.71;99644.81;337865;28;5437;-69
2023/09/08 00:41:12;;;;;;;3.28;1.63;;;;;;;19.29;64.36;99643.66;333076;28;5398;-70
2023/09/08 00:41:24;;;;;;;3.10;1.58;;;;;;;19.30;64.24;99634.81;340488;28;5534;-69
2023/09/08 00:41:36;;;;;;;2.55;1.73;;;;;;;19.32;64.57;99638.19;339989;28;4661;-70
2023/09/08 00:41:49;;;;;;;2.20;1.70;;;;;;;19.34;64.30;99637.13;337705;28;17988;-70
2023/09/08 00:42:01;;;;;;;2.05;1.65;;;;;;;19.35;64.36;99637.97;339969;28;4517;-69
2023/09/08 00:42:13;;;;;;;2.28;1.60;;;;;;;19.39;64.11;99638.59;337614;28;16543;-69
2023/09/08 00:42:25;;;;;;;2.30;1.58;;;;;;;19.42;64.08;99641.88;340163;28;4623;-69
2023/09/08 00:42:37;;;;;;;2.30;1.52;;;;;;;19.44;64.28;99637.34;339678;28;4667;-69
2023/09/08 00:42:49;;;;;;;3.15;1.70;;;;;;;19.47;64.13;99641.53;337847;28;18199;-68
2023/09/08 00:43:01;;;;;;;3.28;1.70;;;;;;;19.48;64.34;99637.97;339911;28;4471;-69
2023/09/08 00:43:13;;;;;;;2.67;1.55;;;;;;;19.49;64.29;99644.91;337854;28;10857;-70
2023/09/08 00:43:25;;;;;;;2.00;1.63;;;;;;;19.51;64.00;99643.84;340470;28;5093;-69
2023/09/08 00:43:37;;;;;;;2.55;1.70;;;;;;;19.51;64.02;99641.22;339984;28;4726;-69
2023/09/08 00:43:49;;;;;;;2.72;1.60;;;;;;;19.53;64.02;99636.66;332991;28;17733;-69
2023/09/08 00:44:02;;;;;;;4.43;1.83;;;;;;;19.53;63.91;99639.31;340439;28;4640;-69
2023/09/08 00:44:14;;;;;;;3.78;1.90;;;;;;;19.53;63.86;99641.09;338031;28;11005;-69
2023/09/08 00:44:26;;;;;;;3.22;1.83;;;;;;;19.56;63.71;99639.09;340516;28;5424;-69
2023/09/08 00:44:38;;;;;;;2.47;1.63;;;;;;;19.58;63.77;99635.50;339957;28;4708;-69
2023/09/08 00:44:49;;;;;;;2.20;1.55;;;;;;;19.58;63.94;99640.78;337552;28;18126;-69
2023/09/08 00:45:02;;;;;;;3.00;1.80;;;;;;;19.58;63.81;99638.16;339367;28;5379;-69
2023/09/08 00:45:14;;;;;;;2.70;1.60;;;;;;;19.60;63.88;99638.88;336002;28;5109;-69
2023/09/08 00:45:29;;;;;;;2.13;1.42;;;;;;;19.60;63.91;99644.16;339101;28;4494;-69
2023/09/08 00:45:43;;;;;;;2.42;1.65;;;;;;;19.64;63.55;99642.97;335895;28;17975;-69
2023/09/08 00:45:56;;;;;;;2.88;1.90;;;;;;;19.64;63.55;99643.84;336307;28;17939;-69
2023/09/08 00:46:09;;;;;;;2.60;1.88;;;;;;;19.66;63.50;99641.94;339890;28;4508;-68
2023/09/08 00:46:21;;;;;;;2.25;1.65;;;;;;;19.69;63.47;99640.88;337109;28;18369;-68
2023/09/08 00:46:33;;;;;;;2.10;1.50;;;;;;;19.68;63.50;99644.44;340169;28;4643;-69
2023/09/08 00:46:46;;;;;;;2.30;1.70;;;;;;;19.68;63.50;99639.19;332833;28;17937;-69
2023/09/08 00:46:58;;;;;;;2.95;1.70;;;;;;;19.68;63.49;99640.03;337043;28;5133;-69
2023/09/08 00:47:11;;;;;;;3.10;1.65;;;;;;;19.70;63.37;99642.59;337485;28;18672;-69
2023/09/08 00:47:23;;;;;;;2.83;1.73;;;;;;;19.70;63.30;99643.41;339935;28;5089;-68
2023/09/08 00:47:35;;;;;;;2.30;1.80;;;;;;;19.70;63.41;99637.31;337287;28;16539;-69
2023/09/08 00:47:47;;;;;;;2.60;1.88;;;;;;;19.71;63.40;99644.28;339608;28;5366;-68
2023/09/08 00:47:59;;;;;;;2.70;1.85;;;;;;;19.71;63.38;99634.56;338094;28;11662;-68
2023/09/08 00:48:12;;;;;;;2.40;1.73;;;;;;;19.71;63.30;99641.66;337382;28;18634;-68
2023/09/08 00:48:25;;;;;;;2.22;1.80;;;;;;;19.70;63.42;99637.31;336975;28;11288;-69
2023/09/08 00:48:38;;;;;;;2.60;1.80;;;;;;;19.65;63.03;99637.59;339965;28;4541;-68
2023/09/08 00:48:50;;;;;;;2.33;1.63;;;;;;;19.64;63.20;99642.97;337389;28;18087;-68
2023/09/08 00:49:02;;;;;;;2.30;1.55;;;;;;;19.65;62.94;99642.88;340117;28;4483;-67
2023/09/08 00:49:14;;;;;;;2.33;1.70;;;;;;;19.68;62.94;99641.81;337646;28;5451;-69
2023/09/08 00:49:28;;;;;;;2.15;1.80;;;;;;;19.64;62.74;99648.25;340139;28;5379;-69
2023/09/08 00:49:40;;;;;;;2.03;1.70;;;;;;;19.66;63.00;99635.81;335170;28;4780;-69
2023/09/08 00:49:53;;;;;;;2.30;1.63;;;;;;;19.66;62.96;99641.06;337397;28;18087;-69
2023/09/08 00:50:06;;;;;;;2.55;1.73;;;;;;;19.66;63.13;99644.59;337543;28;10970;-69
2023/09/08 00:50:18;;;;;;;2.35;1.70;;;;;;;19.59;63.91;99640.69;339445;28;17384;-69
2023/09/08 00:50:30;;;;;;;2.38;1.70;;;;;;;19.60;63.74;99642.38;338079;28;4498;-69
2023/09/08 00:50:42;;;;;;;2.17;1.60;;;;;;;19.61;63.67;99643.22;340240;28;5164;-69
2023/09/08 00:50:56;;;;;;;2.45;1.90;;;;;;;19.62;63.53;99636.97;340176;28;4528;-68
2023/09/08 00:51:10;;;;;;;2.20;1.83;;;;;;;19.64;63.63;99642.97;338737;28;18028;-69
2023/09/08 00:51:22;;;;;;;3.17;1.70;;;;;;;19.65;63.66;99644.69;336668;28;18094;-70
2023/09/08 00:51:34;;;;;;;3.45;1.70;;;;;;;19.66;63.45;99641.06;341733;28;5863;-69
2023/09/08 00:51:47;;;;;;;3.60;1.85;;;;;;;19.67;63.54;99642.78;338515;28;18082;-69
2023/09/08 00:51:59;;;;;;;2.53;1.77;;;;;;;19.68;63.34;99639.19;341354;28;4653;-68
2023/09/08 00:52:12;;;;;;;2.15;1.73;;;;;;;19.66;63.63;99641.94;338617;28;19056;-69
2023/09/08 00:52:24;;;;;;;2.38;1.85;;;;;;;19.63;63.57;99641.31;338741;28;4590;-69
2023/09/08 00:52:36;;;;;;;2.60;1.95;;;;;;;19.62;63.62;99644.88;329656;28;5234;-69
2023/09/08 00:52:48;;;;;;;2.55;1.88;;;;;;;19.64;63.76;99637.72;337774;28;18131;-69
2023/09/08 00:53:00;;;;;;;2.30;1.77;;;;;;;19.64;63.76;99642.97;339988;28;4495;-69
2023/09/08 00:53:13;;;;;;;1.98;1.58;;;;;;;19.66;63.45;99644.59;338118;28;18080;-69
2023/09/08 00:53:25;;;;;;;1.88;1.50;;;;;;;19.67;63.64;99637.50;341494;28;5773;-69
2023/09/08 00:53:37;;;;;;;1.77;1.50;;;;;;;19.68;63.29;99641.81;338721;28;11374;-69
2023/09/08 00:53:50;;;;;;;2.90;1.70;;;;;;;19.69;63.40;99640.88;341373;28;5351;-68
2023/09/08 00:54:02;;;;;;;3.22;1.83;;;;;;;19.66;63.37;99636.66;336845;28;16164;-69
2023/09/08 00:54:14;;;;;;;2.30;1.60;;;;;;;19.67;63.35;99640.16;341295;28;5423;-69
2023/09/08 00:54:26;;;;;;;2.38;1.52;;;;;;;19.68;63.26;99632.13;338592;28;12375;-69
2023/09/08 00:54:39;;;;;;;2.15;1.55;;;;;;;19.69;63.50;99640.88;341362;28;4687;-70
2023/09/08 00:54:51;;;;;;;2.38;1.70;;;;;;;19.67;63.46;99638.34;338789;28;4788;-69
2023/09/08 00:55:03;;;;;;;2.45;1.73;;;;;;;19.65;63.57;99640.25;337420;28;17996;-70
2023/09/08 00:55:16;;;;;;;2.50;1.75;;;;;;;19.66;63.33;99641.06;339980;28;4646;-69
2023/09/08 00:55:29;;;;;;;2.65;1.67;;;;;;;19.61;63.42;99633.50;336071;28;18725;-70
2023/09/08 00:55:41;;;;;;;2.53;1.65;;;;;;;19.63;63.36;99636.03;338198;28;17470;-71
2023/09/08 00:55:54;;;;;;;2.80;1.83;;;;;;;19.64;63.40;99642.97;334207;28;18284;-69
2023/09/08 00:56:08;;;;;;;2.40;1.70;;;;;;;19.59;63.58;99634.56;339825;28;5535;-70
2023/09/08 00:56:21;;;;;;;3.35;1.83;;;;;;;19.59;63.67;99631.94;337884;28;18084;-69
2023/09/08 00:56:33;;;;;;;3.50;1.90;;;;;;;19.56;63.76;99631.19;337124;28;11410;-69
2023/09/08 00:56:48;;;;;;;2.80;1.65;;;;;;;19.53;63.87;99631.41;340583;28;5110;-69
2023/09/08 00:57:03;;;;;;;2.38;1.65;;;;;;;19.52;63.83;99635.00;335471;28;16575;-70
2023/09/08 00:57:15;;;;;;;2.55;1.80;;;;;;;19.54;63.78;99633.09;336303;28;18324;-69
2023/09/08 00:57:27;;;;;;;3.17;1.63;;;;;;;19.56;63.77;99636.47;338757;28;4668;-69
2023/09/08 00:57:39;;;;;;;3.58;1.88;;;;;;;19.56;63.82;99633.84;336396;28;18161;-69
2023/09/08 00:57:51;;;;;;;4.07;2.13;;;;;;;19.59;63.73;99631.94;333650;28;5693;-69
2023/09/08 00:58:03;;;;;;;3.67;1.95;;;;;;;19.60;63.82;99636.25;337232;28;17868;-69
2023/09/08 00:58:15;;;;;;;3.00;1.83;;;;;;;19.62;63.76;99631.69;340072;28;4565;-69
2023/09/08 00:58:28;;;;;;;2.50;1.70;;;;;;;19.64;63.91;99632.44;340478;28;4760;-67
2023/09/08 00:58:40;;;;;;;2.20;1.75;;;;;;;19.66;63.56;99641.94;337639;28;19140;-68
2023/09/08 00:58:52;;;;;;;2.38;1.73;;;;;;;19.65;63.83;99634.97;340030;28;5535;-67
2023/09/08 00:59:05;;;;;;;3.00;1.83;;;;;;;19.66;63.61;99639.31;337588;28;18105;-68
2023/09/08 00:59:17;;;;;;;2.95;1.85;;;;;;;19.68;63.54;99633.91;340415;28;5214;-68
2023/09/08 00:59:32;;;;;;;4.55;2.00;;;;;;;19.69;63.61;99630.31;337623;28;11203;-68